Time;durP1;ratioP1;P1;durP2;ratioP2;P2;SDS_P1;SDS_P2;PMS_P1;PMS_P2;Temp;Humidity;BMP_temperature;BMP_pressure;BME280_temperature;BME280_humidity;BME280_pressure;Samples;Min_cycle;Max_cycle;Signal;HPM_P1;HPM_P2
2022/08/30 00:01:30;;;;;;;19.08;8.98;;;;;;;19.61;67.94;99200.84;5073349;28;20055;-75
2022/08/30 00:03:59;;;;;;;15.05;7.97;;;;;;;19.61;68.15;99206.16;5072545;28;20511;-76
2022/08/30 00:06:27;;;;;;;18.17;8.55;;;;;;;19.64;68.18;99206.03;5073007;28;20053;-76
2022/08/30 00:08:55;;;;;;;17.70;8.57;;;;;;;19.54;68.46;99202.06;5073426;28;20056;-75
2022/08/30 00:11:25;;;;;;;17.88;9.07;;;;;;;19.58;68.45;99205.44;5073233;28;20055;-76
2022/08/30 00:13:54;;;;;;;13.98;8.38;;;;;;;19.56;68.84;99194.06;5073402;28;20512;-76
2022/08/30 00:16:22;;;;;;;19.23;9.05;;;;;;;19.44;68.75;99191.03;5073175;28;20048;-75
2022/08/30 00:18:50;;;;;;;16.77;8.80;;;;;;;19.46;69.12;99190.09;5073350;28;20060;-77
2022/08/30 00:21:17;;;;;;;19.23;9.20;;;;;;;19.48;69.16;99194.38;5071285;28;20048;-76
2022/08/30 00:23:44;;;;;;;17.75;7.82;;;;;;;19.55;69.11;99198.50;5072986;28;20572;-76
2022/08/30 00:26:13;;;;;;;15.65;8.23;;;;;;;19.55;69.18;99197.63;5072891;28;20551;-75
2022/08/30 00:28:40;;;;;;;15.88;8.13;;;;;;;19.57;69.33;99206.38;5073307;28;20059;-75
2022/08/30 00:31:07;;;;;;;17.98;8.32;;;;;;;19.57;69.32;99207.22;5071215;28;20135;-75
2022/08/30 00:33:34;;;;;;;14.60;8.07;;;;;;;19.56;69.46;99197.56;5055029;28;20052;-76
2022/08/30 00:36:03;;;;;;;18.95;8.32;;;;;;;19.55;69.58;99192.31;5072394;28;20062;-76
2022/08/30 00:38:30;;;;;;;17.23;8.20;;;;;;;19.59;69.79;99191.25;5080018;28;20120;-75
2022/08/30 00:40:58;;;;;;;16.38;8.77;;;;;;;19.58;69.67;99192.22;5079654;28;20048;-76
2022/08/30 00:43:28;;;;;;;17.48;7.82;;;;;;;19.56;70.00;99178.16;5061023;28;20073;-76
2022/08/30 00:45:57;;;;;;;13.10;7.90;;;;;;;19.57;69.76;99179.88;5052755;28;20061;-76
2022/08/30 00:48:25;;;;;;;13.03;8.70;;;;;;;19.56;69.95;99194.06;5052665;28;20057;-76
2022/08/30 00:50:59;;;;;;;16.13;8.93;;;;;;;19.49;69.79;99177.59;5052609;28;20080;-76
2022/08/30 00:53:33;;;;;;;16.90;8.32;;;;;;;19.52;70.19;99185.38;5052666;28;20053;-76
2022/08/30 00:56:00;;;;;;;15.82;8.40;;;;;;;19.51;70.06;99183.69;5052700;28;20061;-78
2022/08/30 00:58:31;;;;;;;16.60;9.00;;;;;;;19.40;70.48;99172.66;5051991;28;20091;-77
2022/08/30 01:01:00;;;;;;;15.27;8.38;;;;;;;19.37;70.83;99183.41;5052399;28;20059;-75
2022/08/30 01:03:28;;;;;;;14.15;8.00;;;;;;;19.31;70.95;99170.44;5067646;28;20048;-76
2022/08/30 01:05:57;;;;;;;21.17;8.90;;;;;;;19.29;71.05;99167.00;5052414;28;20144;-75
2022/08/30 01:08:24;;;;;;;17.93;8.93;;;;;;;19.22;71.28;99176.97;5052272;28;20061;-75
2022/08/30 01:10:54;;;;;;;17.33;8.95;;;;;;;19.20;72.04;99179.69;5052331;28;20299;-76
2022/08/30 01:13:22;;;;;;;16.48;9.05;;;;;;;19.23;71.78;99182.22;5034233;28;20057;-75
2022/08/30 01:15:50;;;;;;;20.80;9.43;;;;;;;19.18;71.83;99168.31;5052437;28;20084;-76
2022/08/30 01:18:19;;;;;;;17.08;8.55;;;;;;;19.20;72.00;99181.47;5052292;28;20045;-76
2022/08/30 01:21:07;;;;;;;16.15;8.93;;;;;;;19.18;72.15;99165.66;5054613;28;20100;-76
2022/08/30 01:23:39;;;;;;;15.48;8.27;;;;;;;19.25;72.21;99168.91;5053392;28;20509;-76
2022/08/30 01:26:06;;;;;;;14.88;8.82;;;;;;;19.21;72.40;99168.19;5052935;28;20140;-77
2022/08/30 01:28:34;;;;;;;16.48;9.25;;;;;;;19.14;72.67;99166.72;5051861;28;20513;-76
2022/08/30 01:31:01;;;;;;;16.60;9.15;;;;;;;18.99;72.95;99152.38;5052321;28;20136;-76
2022/08/30 01:33:29;;;;;;;17.63;9.02;;;;;;;19.02;73.37;99161.97;5052159;28;20040;-77
2022/08/30 01:36:01;;;;;;;16.40;8.60;;;;;;;18.92;73.57;99152.69;5052356;28;20055;-76
2022/08/30 01:38:43;;;;;;;18.00;9.43;;;;;;;18.86;73.41;99124.69;5052269;28;20400;-76
2022/08/30 01:41:33;;;;;;;18.45;9.68;;;;;;;18.98;73.98;99141.84;5067846;28;20497;-76
2022/08/30 01:44:05;;;;;;;17.55;9.07;;;;;;;18.92;73.89;99139.44;5052124;28;20083;-76
2022/08/30 01:46:42;;;;;;;17.75;8.95;;;;;;;18.94;73.96;99148.19;5051754;28;20496;-76
2022/08/30 01:49:13;;;;;;;16.42;8.70;;;;;;;18.90;74.01;99131.56;5054703;28;20501;-76
2022/08/30 01:51:41;;;;;;;25.25;9.27;;;;;;;19.01;73.93;99137.28;5056220;28;20072;-76
2022/08/30 01:54:08;;;;;;;17.27;8.88;;;;;;;19.03;73.93;99142.50;5055802;28;20056;-75
2022/08/30 01:56:36;;;;;;;16.80;9.27;;;;;;;19.00;74.19;99140.84;5055628;28;20515;-77
2022/08/30 01:59:03;;;;;;;15.00;8.55;;;;;;;19.03;74.35;99148.63;5071145;28;20061;-76
2022/08/30 02:01:35;;;;;;;15.52;8.73;;;;;;;19.03;74.40;99153.94;5055617;28;20049;-76
2022/08/30 02:04:03;;;;;;;19.63;9.73;;;;;;;18.96;74.54;99133.97;5055815;28;20059;-75
2022/08/30 02:06:30;;;;;;;20.88;9.15;;;;;;;19.12;74.40;99146.53;5056545;28;20397;-76
2022/08/30 02:08:59;;;;;;;19.92;9.10;;;;;;;19.00;74.24;99119.69;5073354;28;20560;-76
2022/08/30 02:11:26;;;;;;;20.92;8.27;;;;;;;19.19;74.40;99145.38;5055320;28;20111;-76
2022/08/30 02:13:53;;;;;;;15.80;8.77;;;;;;;19.15;74.43;99149.06;5073220;28;20059;-76
2022/08/30 02:16:22;;;;;;;20.70;8.93;;;;;;;19.17;74.68;99147.22;5075562;28;20054;-76
2022/08/30 02:18:51;;;;;;;15.30;8.95;;;;;;;19.24;74.40;99154.81;5075560;28;20099;-76
2022/08/30 02:21:19;;;;;;;15.82;8.10;;;;;;;19.27;74.38;99139.72;5075079;28;20052;-76
2022/08/30 02:23:46;;;;;;;19.08;9.15;;;;;;;19.25;74.33;99137.13;5075195;28;20063;-76
2022/08/30 02:26:15;;;;;;;18.67;9.35;;;;;;;19.39;74.08;99155.94;5075213;28;20118;-76
2022/08/30 02:28:42;;;;;;;20.42;9.35;;;;;;;19.28;74.39;99144.94;5040994;28;20056;-77
2022/08/30 02:31:18;;;;;;;22.40;9.23;;;;;;;19.38;74.25;99156.88;5075110;28;20048;-76
2022/08/30 02:33:50;;;;;;;16.20;8.88;;;;;;;19.48;73.99;99165.25;5075252;28;20052;-76
2022/08/30 02:36:19;;;;;;;14.55;8.45;;;;;;;19.55;73.69;99171.13;5075176;28;20508;-76
2022/08/30 02:38:48;;;;;;;16.60;8.50;;;;;;;19.61;73.68;99165.56;5074896;28;20060;-76
2022/08/30 02:41:16;;;;;;;18.45;8.98;;;;;;;19.61;73.74;99152.31;5057303;28;20056;-76
2022/08/30 02:43:43;;;;;;;17.02;9.02;;;;;;;19.68;73.76;99158.19;5074995;28;20117;-76
2022/08/30 02:46:11;;;;;;;17.45;9.23;;;;;;;19.70;73.37;99159.88;5074925;28;20102;-77
2022/08/30 02:48:38;;;;;;;20.30;9.35;;;;;;;19.78;73.31;99168.34;5074727;28;20059;-77
2022/08/30 02:51:10;;;;;;;21.08;10.40;;;;;;;19.78;73.25;99157.75;5074818;28;20052;-77
2022/08/30 02:53:40;;;;;;;21.73;9.85;;;;;;;19.80;73.52;99155.03;5074767;28;20504;-77
2022/08/30 02:56:07;;;;;;;17.73;9.02;;;;;;;19.72;73.43;99141.28;5074842;28;20059;-77
2022/08/30 02:58:35;;;;;;;20.25;9.40;;;;;;;19.82;73.39;99154.03;5074018;28;20060;-76
2022/08/30 03:01:04;;;;;;;21.48;10.10;;;;;;;19.84;73.21;99148.66;5074700;28;20045;-76
2022/08/30 03:03:32;;;;;;;19.80;9.13;;;;;;;19.86;73.48;99160.06;5074522;28;20053;-76
2022/08/30 03:06:02;;;;;;;17.92;10.15;;;;;;;19.90;73.13;99148.41;5074841;28;20076;-76
2022/08/30 03:08:29;;;;;;;;;;;;;;;19.61;73.46;99155.81;5074885;28;20059;-77
2022/08/30 03:10:56;;;;;;;25.15;10.63;;;;;;;19.68;73.91;99156.44;5074617;28;19931;-76
2022/08/30 03:13:24;;;;;;;21.38;9.85;;;;;;;19.69;74.06;99159.94;5074298;28;20063;-77
2022/08/30 03:15:51;;;;;;;22.00;10.10;;;;;;;19.69;74.41;99163.44;5074807;28;20060;-77
2022/08/30 03:18:19;;;;;;;25.70;11.27;;;;;;;19.65;74.46;99159.22;5074385;28;20058;-77
2022/08/30 03:20:47;;;;;;;23.88;10.82;;;;;;;19.58;74.68;99148.03;5074476;28;20140;-76
2022/08/30 03:23:22;;;;;;;26.27;11.20;;;;;;;19.70;74.79;99154.59;5074297;28;20053;-77
2022/08/30 03:25:49;;;;;;;18.25;10.52;;;;;;;19.73;74.88;99156.25;5056607;28;20140;-76
2022/08/30 03:28:16;;;;;;;25.65;11.00;;;;;;;19.77;74.87;99145.44;5074517;28;20076;-77
2022/08/30 03:30:43;;;;;;;24.52;11.07;;;;;;;19.86;74.58;99152.13;5074283;28;20051;-76
2022/08/30 03:33:10;;;;;;;23.80;11.20;;;;;;;19.99;74.22;99155.06;5074258;28;20052;-77
2022/08/30 03:35:37;;;;;;;21.52;11.70;;;;;;;19.92;73.58;99103.25;5074158;28;20048;-76
2022/08/30 03:38:05;;;;;;;25.15;11.48;;;;;;;20.32;73.07;99147.28;5074234;28;20082;-76
2022/08/30 03:40:32;;;;;;;23.40;11.05;;;;;;;20.50;72.64;99144.69;5073519;28;20139;-76
2022/08/30 03:42:59;;;;;;;24.13;11.55;;;;;;;20.76;71.83;99140.78;5074113;28;20151;-76
2022/08/30 03:45:27;;;;;;;23.08;10.57;;;;;;;20.96;71.07;99147.75;5073574;28;20056;-76
2022/08/30 03:47:54;;;;;;;24.42;10.73;;;;;;;21.04;70.47;99135.81;5073762;28;20109;-76
2022/08/30 03:50:21;;;;;;;25.50;11.25;;;;;;;21.23;69.99;99148.13;5073649;28;20151;-76
2022/08/30 03:52:48;;;;;;;26.02;11.32;;;;;;;21.58;68.99;99153.44;5073640;28;20561;-76
2022/08/30 03:55:16;;;;;;;24.65;10.10;;;;;;;21.86;67.72;99143.03;5073503;28;20083;-76
2022/08/30 03:57:43;;;;;;;22.30;10.10;;;;;;;22.02;67.06;99155.47;5073677;28;20059;-77
2022/08/30 04:00:12;;;;;;;19.23;9.68;;;;;;;22.26;66.56;99151.50;5073509;28;20060;-76
2022/08/30 04:02:40;;;;;;;23.95;9.23;;;;;;;22.34;66.00;99156.38;5069523;28;20046;-76
2022/08/30 04:05:09;;;;;;;20.60;9.15;;;;;;;22.53;65.11;99145.56;5073851;28;20052;-77
2022/08/30 04:07:36;;;;;;;28.85;9.90;;;;;;;22.70;64.85;99161.41;5054995;28;20041;-77
2022/08/30 04:10:07;;;;;;;19.13;8.70;;;;;;;22.98;63.71;99161.63;5070289;28;20059;-77
2022/08/30 04:12:34;;;;;;;20.65;9.73;;;;;;;23.10;62.82;99131.59;5070787;28;20091;-76
2022/08/30 04:15:04;;;;;;;;;;;;;;;23.04;63.94;99163.97;5073519;28;20062;-76
2022/08/30 04:17:31;;;;;;;18.45;9.20;;;;;;;23.09;63.11;99173.38;5055601;28;19924;-76
2022/08/30 04:19:58;;;;;;;20.73;8.50;;;;;;;23.30;62.69;99170.38;5073367;28;20057;-76
2022/08/30 04:22:25;;;;;;;20.27;9.10;;;;;;;23.62;61.66;99159.59;5073023;28;20059;-77
2022/08/30 04:24:52;;;;;;;23.25;9.40;;;;;;;23.59;61.05;99141.94;5073413;28;20056;-76
2022/08/30 04:27:20;;;;;;;20.27;9.57;;;;;;;23.78;60.54;99171.03;5073035;28;20512;-78
2022/08/30 04:29:47;;;;;;;20.75;9.70;;;;;;;23.83;60.22;99155.63;5055409;28;20107;-76
2022/08/30 04:32:15;;;;;;;23.00;9.57;;;;;;;23.82;60.27;99161.91;5072763;28;20048;-78
2022/08/30 04:34:43;;;;;;;22.08;9.30;;;;;;;23.61;60.66;99150.72;5060634;28;20061;-77
2022/08/30 04:37:10;;;;;;;22.52;9.63;;;;;;;23.54;60.67;99141.38;5035282;28;20063;-77
2022/08/30 04:39:38;;;;;;;14.80;8.73;;;;;;;23.59;61.03;99167.75;5052601;28;20051;-78
2022/08/30 04:42:05;;;;;;;18.40;9.05;;;;;;;23.41;61.26;99149.28;5061386;28;20433;-79
2022/08/30 04:44:32;;;;;;;19.50;9.27;;;;;;;23.56;60.70;99170.63;5069764;28;20056;-76
2022/08/30 04:47:00;;;;;;;20.17;9.43;;;;;;;23.76;60.33;99172.09;5072806;28;20056;-76
2022/08/30 04:49:27;;;;;;;20.73;9.23;;;;;;;24.04;59.45;99164.06;5054753;28;20589;-77
2022/08/30 04:51:54;;;;;;;17.77;9.80;;;;;;;24.15;58.95;99144.69;5073068;28;20044;-77
2022/08/30 04:54:21;;;;;;;22.30;9.52;;;;;;;24.22;58.72;99150.50;5072740;28;20056;-77
2022/08/30 04:56:48;;;;;;;17.67;8.40;;;;;;;24.35;58.54;99151.44;5071400;28;20053;-77
2022/08/30 04:59:16;;;;;;;24.27;10.18;;;;;;;24.51;57.92;99148.66;5071013;28;20483;-77
2022/08/30 05:01:43;;;;;;;18.60;9.35;;;;;;;24.65;57.32;99161.97;5055062;28;20049;-77
2022/08/30 05:04:13;;;;;;;13.48;9.35;;;;;;;24.50;57.37;99131.78;5072595;28;20049;-77
2022/08/30 05:06:41;;;;;;;18.70;10.23;;;;;;;24.77;57.26;99154.94;5072514;28;20079;-76
2022/08/30 05:09:08;;;;;;;22.13;12.25;;;;;;;24.85;56.51;99154.44;5054313;28;20651;-77
2022/08/30 05:11:37;;;;;;;18.38;9.73;;;;;;;24.82;56.57;99144.78;5072473;28;20052;-76
2022/08/30 05:14:04;;;;;;;19.77;9.83;;;;;;;25.09;56.09;99154.59;5072802;28;20052;-77
2022/08/30 05:16:31;;;;;;;17.33;9.77;;;;;;;25.13;55.81;99148.94;5073040;28;20301;-77
2022/08/30 05:18:59;;;;;;;19.45;9.43;;;;;;;25.29;55.47;99151.44;5060811;28;20057;-77
2022/08/30 05:21:27;;;;;;;21.10;9.95;;;;;;;25.11;55.76;99147.34;5064854;28;20163;-77
2022/08/30 05:23:56;;;;;;;19.95;10.50;;;;;;;25.16;55.34;99155.88;5060362;28;20079;-76
2022/08/30 05:26:25;;;;;;;;;;;;;;;24.88;56.90;99159.56;5062935;28;20504;-78
2022/08/30 05:28:53;;;;;;;20.25;10.55;;;;;;;24.90;56.43;99158.50;5075573;28;19924;-79
2022/08/30 05:31:26;;;;;;;21.67;10.63;;;;;;;25.09;55.72;99150.09;5076612;28;20546;-77
2022/08/30 05:33:54;;;;;;;18.40;9.98;;;;;;;25.27;55.19;99141.81;5077790;28;20048;-77
2022/08/30 05:36:24;;;;;;;23.00;10.80;;;;;;;25.32;55.23;99166.44;5073563;28;20060;-76
2022/08/30 05:38:53;;;;;;;23.92;11.30;;;;;;;24.99;55.49;99132.97;5065752;28;20060;-77
2022/08/30 05:41:22;;;;;;;18.77;10.20;;;;;;;25.00;55.84;99157.91;5060077;28;20052;-77
2022/08/30 05:43:54;;;;;;;20.52;10.30;;;;;;;24.96;55.94;99165.25;5052222;28;20148;-77
2022/08/30 05:46:22;;;;;;;21.35;11.05;;;;;;;25.00;55.92;99163.25;5067015;28;20105;-77
2022/08/30 05:48:50;;;;;;;22.90;10.90;;;;;;;24.98;55.99;99157.16;5069002;28;20052;-77
2022/08/30 05:51:21;;;;;;;20.30;10.20;;;;;;;25.12;55.57;99154.38;5057556;28;20048;-78
2022/08/30 05:53:49;;;;;;;22.20;10.85;;;;;;;25.10;55.61;99166.97;5071694;28;20076;-77
2022/08/30 05:56:20;;;;;;;21.38;11.13;;;;;;;24.90;55.89;99155.81;5056048;28;20068;-77
2022/08/30 05:58:51;;;;;;;24.33;12.43;;;;;;;25.02;55.90;99174.69;5055975;28;20053;-76
2022/08/30 06:01:26;;;;;;;21.45;11.52;;;;;;;24.97;55.77;99164.28;5056108;28;20048;-77
2022/08/30 06:03:57;;;;;;;24.80;12.18;;;;;;;24.99;55.71;99170.38;5044056;28;20127;-76
2022/08/30 06:06:31;;;;;;;22.55;12.63;;;;;;;25.09;55.75;99176.81;5075447;28;20048;-77
2022/08/30 06:08:58;;;;;;;20.15;11.90;;;;;;;25.18;55.20;99172.66;5075488;28;20070;-77
2022/08/30 06:11:26;;;;;;;24.85;11.95;;;;;;;25.10;55.18;99170.53;5075527;28;20063;-77
2022/08/30 06:13:54;;;;;;;24.13;11.18;;;;;;;25.09;55.38;99179.50;5075574;28;20067;-77
2022/08/30 06:16:24;;;;;;;22.35;12.02;;;;;;;25.18;55.34;99182.50;5075630;28;20056;-77
2022/08/30 06:18:54;;;;;;;24.83;11.82;;;;;;;25.22;54.88;99162.66;5080171;28;20053;-77
2022/08/30 06:21:24;;;;;;;26.63;11.60;;;;;;;25.31;54.50;99176.25;5075184;28;20071;-80
2022/08/30 06:23:52;;;;;;;21.08;11.27;;;;;;;25.36;54.46;99170.63;5075832;28;20544;-79
2022/08/30 06:26:19;;;;;;;22.15;11.30;;;;;;;25.28;54.54;99176.47;5075986;28;20102;-78
2022/08/30 06:28:48;;;;;;;23.02;11.70;;;;;;;25.08;55.08;99166.22;5075385;28;20056;-79
2022/08/30 06:31:17;;;;;;;21.67;12.93;;;;;;;25.08;55.02;99179.59;5074804;28;20412;-79
2022/08/30 06:33:45;;;;;;;21.15;12.70;;;;;;;25.05;55.11;99191.34;5074626;28;20052;-79
2022/08/30 06:36:19;;;;;;;25.80;13.05;;;;;;;25.22;54.47;99189.41;5075090;28;20048;-77
2022/08/30 06:38:50;;;;;;;23.83;12.13;;;;;;;25.34;54.26;99183.22;5075203;28;20056;-79
2022/08/30 06:41:21;;;;;;;33.22;13.45;;;;;;;25.27;54.56;99179.25;5075359;28;20508;-78
2022/08/30 06:43:48;;;;;;;24.38;11.80;;;;;;;25.04;54.65;99186.97;5075127;28;20610;-79
2022/08/30 06:46:31;;;;;;;25.27;11.93;;;;;;;25.10;54.43;99186.56;5075173;28;20079;-76
2022/08/30 06:48:59;;;;;;;21.38;11.75;;;;;;;25.32;54.05;99182.47;5075285;28;20048;-80
2022/08/30 06:51:30;;;;;;;25.27;12.50;;;;;;;25.23;54.26;99180.41;5074986;28;20057;-78
2022/08/30 06:54:01;;;;;;;22.48;11.93;;;;;;;25.33;53.97;99193.03;5074945;28;20049;-78
2022/08/30 06:56:29;;;;;;;26.38;12.50;;;;;;;25.44;53.54;99191.44;5074854;28;20054;-77
2022/08/30 06:58:57;;;;;;;23.50;12.68;;;;;;;25.60;53.29;99185.88;5074755;28;20500;-80
2022/08/30 07:01:26;;;;;;;22.20;13.20;;;;;;;25.69;52.67;99190.63;5074809;28;20053;-78
2022/08/30 07:03:54;;;;;;;21.92;12.27;;;;;;;25.60;52.70;99161.81;5074412;28;20052;-78
2022/08/30 07:06:24;;;;;;;24.15;11.90;;;;;;;25.78;52.38;99179.25;5074700;28;20060;-78
2022/08/30 07:08:51;;;;;;;20.10;11.57;;;;;;;26.00;52.19;99193.84;5074659;28;20048;-78
2022/08/30 07:11:32;;;;;;;21.58;12.63;;;;;;;26.17;51.57;99185.44;5074404;28;20397;-78
2022/08/30 07:14:00;;;;;;;21.08;11.90;;;;;;;26.19;51.05;99170.13;5074213;28;20063;-76
2022/08/30 07:16:28;;;;;;;22.63;11.70;;;;;;;26.28;51.08;99179.31;5073489;28;20063;-77
2022/08/30 07:18:57;;;;;;;24.83;11.80;;;;;;;26.31;50.84;99176.44;5070636;28;20492;-78
2022/08/30 07:21:33;;;;;;;21.67;11.45;;;;;;;26.24;50.40;99162.66;5060027;28;20102;-80
2022/08/30 07:24:02;;;;;;;21.75;12.48;;;;;;;26.42;50.14;99189.03;5073468;28;20044;-79
2022/08/30 07:26:36;;;;;;;20.90;12.60;;;;;;;26.17;50.58;99179.25;5050623;28;20055;-79
2022/08/30 07:29:04;;;;;;;23.45;12.30;;;;;;;26.11;51.17;99183.22;5074453;28;20056;-78
2022/08/30 07:31:33;;;;;;;24.52;13.00;;;;;;;26.09;50.69;99179.78;5074161;28;20058;-77
2022/08/30 07:34:00;;;;;;;27.20;13.25;;;;;;;26.01;50.70;99187.53;5073839;28;20467;-78
2022/08/30 07:36:28;;;;;;;26.23;12.88;;;;;;;25.86;50.97;99179.59;5074237;28;20075;-79
2022/08/30 07:38:59;;;;;;;20.38;11.95;;;;;;;25.80;51.70;99174.66;5073936;28;20052;-80
2022/08/30 07:41:30;;;;;;;23.48;11.75;;;;;;;25.89;51.32;99186.56;5074143;28;20053;-78
2022/08/30 07:43:57;;;;;;;24.48;12.60;;;;;;;25.89;50.88;99162.50;5073420;28;20120;-79
2022/08/30 07:46:26;;;;;;;21.90;12.90;;;;;;;26.22;50.31;99183.31;5074236;28;20059;-80
2022/08/30 07:48:54;;;;;;;19.50;11.38;;;;;;;26.40;49.75;99174.91;5073708;28;20122;-79
2022/08/30 07:51:26;;;;;;;20.85;12.63;;;;;;;26.44;49.54;99171.91;5073834;28;20055;-78
2022/08/30 07:53:54;;;;;;;20.85;12.10;;;;;;;26.24;49.43;99143.03;5074010;28;20048;-79
2022/08/30 07:56:22;;;;;;;16.75;11.52;;;;;;;26.45;49.57;99167.38;5073810;28;20107;-79
2022/08/30 07:58:50;;;;;;;25.02;12.18;;;;;;;26.60;48.69;99185.03;5073812;28;20456;-79
2022/08/30 08:01:18;;;;;;;20.33;11.43;;;;;;;26.72;48.22;99152.00;5073718;28;20087;-79
2022/08/30 08:03:46;;;;;;;21.63;11.98;;;;;;;26.99;47.78;99174.13;5076596;28;20466;-79
2022/08/30 08:06:20;;;;;;;22.35;12.20;;;;;;;27.22;47.35;99175.97;5049838;28;20048;-79
2022/08/30 08:08:48;;;;;;;24.33;11.82;;;;;;;27.21;46.88;99182.28;5053305;28;20072;-78
2022/08/30 08:11:23;;;;;;;20.63;11.18;;;;;;;27.22;46.77;99180.47;5054641;28;20059;-78
2022/08/30 08:13:52;;;;;;;18.70;10.27;;;;;;;27.13;46.73;99174.81;5064836;28;20052;-76
2022/08/30 08:16:22;;;;;;;24.40;11.65;;;;;;;26.99;47.45;99174.13;5072514;28;20056;-76
2022/08/30 08:18:50;;;;;;;;;;;;;;;26.90;48.07;99179.22;5075089;28;20059;-77
2022/08/30 08:21:20;;;;;;;24.77;11.40;;;;;;;27.29;46.44;99185.22;5073143;28;19966;-76
2022/08/30 08:23:48;;;;;;;23.77;14.32;;;;;;;27.53;46.10;99184.31;5072817;28;20048;-76
2022/08/30 08:26:15;;;;;;;21.30;11.75;;;;;;;27.60;45.82;99185.56;5071905;28;20049;-76
2022/08/30 08:28:46;;;;;;;20.83;11.68;;;;;;;27.65;45.79;99179.84;5069026;28;20053;-78
2022/08/30 08:31:16;;;;;;;20.58;11.07;;;;;;;27.74;45.02;99171.06;5060103;28;20457;-77
2022/08/30 08:33:44;;;;;;;;;;;;;;;27.51;46.49;99170.16;5071330;28;20139;-79
2022/08/30 08:36:11;;;;;;;25.75;12.18;;;;;;;27.46;46.27;99183.94;5064082;28;19925;-78
2022/08/30 08:38:38;;;;;;;23.10;12.02;;;;;;;27.32;46.54;99184.16;5070246;28;20079;-79
2022/08/30 08:41:33;;;;;;;20.85;12.73;;;;;;;27.06;46.74;99143.22;5072951;28;20452;-82
2022/08/30 08:44:07;;;;;;;19.58;11.32;;;;;;;27.34;46.74;99182.19;5067934;28;20109;-77
2022/08/30 08:47:09;;;;;;;24.35;11.68;;;;;;;27.42;46.64;99176.25;5072657;28;20054;-79
2022/08/30 08:49:39;;;;;;;22.83;11.60;;;;;;;27.42;46.58;99189.66;5052589;28;20068;-78
2022/08/30 08:55:07;;;;;;;16.88;10.48;;;;;;;27.46;46.50;99178.56;5061686;28;20504;-78
2022/08/30 08:57:39;;;;;;;30.13;12.07;;;;;;;27.29;46.75;99189.75;5072078;28;20587;-80
2022/08/30 09:00:13;;;;;;;22.52;11.48;;;;;;;27.24;46.40;99184.75;5072271;28;20102;-78
2022/08/30 09:02:57;;;;;;;19.42;11.98;;;;;;;27.10;46.32;99163.44;5071957;28;20040;-80
2022/08/30 09:05:28;;;;;;;23.40;12.45;;;;;;;27.54;45.98;99192.25;5072251;28;20052;-79
2022/08/30 09:08:06;;;;;;;17.73;10.77;;;;;;;27.83;45.42;99207.03;5072071;28;20048;-79
2022/08/30 09:10:58;;;;;;;20.50;11.43;;;;;;;27.92;44.91;99190.22;5072535;28;20084;-81
2022/08/30 09:13:27;;;;;;;27.33;13.40;;;;;;;27.99;44.10;99186.09;5072411;28;20076;-81
2022/08/30 09:15:56;;;;;;;21.30;12.20;;;;;;;28.05;43.78;99190.09;5072951;28;20147;-79
2022/08/30 09:18:52;;;;;;;24.67;11.88;;;;;;;27.56;43.36;99135.81;5054777;28;20044;-81
2022/08/30 09:21:56;;;;;;;22.80;11.90;;;;;;;27.53;42.85;99176.25;5054700;28;20448;-83
2022/08/30 09:24:24;;;;;;;21.73;12.35;;;;;;;27.43;43.28;99180.66;5076878;28;20048;-79
2022/08/30 09:26:51;;;;;;;23.02;13.85;;;;;;;27.23;43.36;99153.53;5076390;28;20063;-80
2022/08/30 09:29:19;;;;;;;27.23;11.57;;;;;;;27.55;43.48;99198.47;5056971;28;20508;-79
2022/08/30 09:31:52;;;;;;;21.75;12.48;;;;;;;27.29;43.95;99177.19;5038316;28;20052;-81
2022/08/30 09:34:42;;;;;;;24.98;12.75;;;;;;;27.34;43.89;99199.16;5072400;28;20145;-78
2022/08/30 09:37:25;;;;;;;26.20;13.13;;;;;;;27.21;43.73;99176.03;5066127;28;20052;-79
2022/08/30 09:39:52;;;;;;;26.27;13.32;;;;;;;27.39;44.03;99196.13;5072331;28;20045;-81
2022/08/30 09:42:27;;;;;;;22.10;13.00;;;;;;;27.55;44.08;99198.47;5072281;28;20058;-80
2022/08/30 09:45:09;;;;;;;25.92;14.52;;;;;;;27.62;43.46;99199.72;5062026;28;20072;-78
2022/08/30 09:47:40;;;;;;;27.23;16.38;;;;;;;27.74;43.70;99198.72;5052369;28;20045;-78
2022/08/30 09:50:21;;;;;;;30.88;16.65;;;;;;;27.88;42.61;99211.09;5057068;28;20515;-79
2022/08/30 09:52:53;;;;;;;24.38;16.63;;;;;;;28.06;42.63;99203.41;5065352;28;20090;-78
2022/08/30 09:55:47;;;;;;;26.10;16.70;;;;;;;28.17;42.48;99199.88;5041923;28;20144;-78
2022/08/30 09:58:47;;;;;;;26.17;16.42;;;;;;;28.30;42.58;99189.84;5052603;28;20077;-77
2022/08/30 10:01:21;;;;;;;30.67;17.00;;;;;;;28.34;42.64;99183.25;4991430;28;20045;-79
2022/08/30 10:03:59;;;;;;;26.35;16.20;;;;;;;28.40;42.23;99195.34;5051963;28;20057;-77
2022/08/30 10:06:32;;;;;;;28.05;18.23;;;;;;;28.31;41.86;99182.66;5063144;28;20122;-79
2022/08/30 10:09:23;;;;;;;30.75;21.02;;;;;;;28.34;42.11;99202.06;5072226;28;20140;-80
2022/08/30 10:12:19;;;;;;;28.90;17.10;;;;;;;28.33;42.21;99204.84;5071708;28;20098;-76
2022/08/30 10:15:06;;;;;;;28.63;17.50;;;;;;;28.13;42.67;99195.72;5086068;28;20087;-77
2022/08/30 10:18:03;;;;;;;28.15;17.60;;;;;;;28.19;42.50;99189.88;5082667;28;20051;-78
2022/08/30 10:21:09;;;;;;;31.38;17.65;;;;;;;28.25;42.43;99186.69;5057954;28;20052;-81
2022/08/30 10:24:03;;;;;;;32.25;17.88;;;;;;;28.39;41.70;99181.06;5056336;28;20497;-78
2022/08/30 10:26:35;;;;;;;26.92;17.05;;;;;;;28.41;41.81;99188.97;5055282;28;20057;-77
2022/08/30 10:29:08;;;;;;;26.63;17.42;;;;;;;28.43;41.15;99189.72;5055236;28;20049;-78
2022/08/30 10:31:46;;;;;;;33.53;17.50;;;;;;;28.41;41.26;99196.19;5062610;28;20123;-79
2022/08/30 10:34:21;;;;;;;27.15;18.05;;;;;;;28.22;41.61;99178.88;5052753;28;20053;-79
2022/08/30 10:37:00;;;;;;;26.27;16.83;;;;;;;28.21;41.60;99161.06;5075812;28;20059;-83
2022/08/30 10:39:32;;;;;;;23.50;16.07;;;;;;;28.39;41.66;99188.25;5057430;28;20463;-76
2022/08/30 10:42:22;;;;;;;24.83;16.48;;;;;;;28.50;41.23;99182.91;5073997;28;20064;-78
2022/08/30 10:45:12;;;;;;;26.08;16.23;;;;;;;28.63;40.71;99188.13;5075054;28;20102;-79
2022/08/30 10:47:43;;;;;;;;;;;;;;;28.51;41.31;99189.13;5075701;28;20160;-78
2022/08/30 10:50:31;;;;;;;24.80;14.85;;;;;;;28.53;40.08;99193.38;5075755;28;19924;-80
2022/08/30 10:53:32;;;;;;;24.15;15.60;;;;;;;28.52;40.12;99189.00;5079123;28;20447;-78
2022/08/30 10:56:04;;;;;;;30.35;15.88;;;;;;;28.52;39.79;99178.28;5071992;28;20103;-78
2022/08/30 10:58:32;;;;;;;26.08;17.02;;;;;;;28.45;40.26;99184.22;5057367;28;20056;-76
2022/08/30 11:01:04;;;;;;;30.92;17.25;;;;;;;28.58;40.07;99184.94;5054346;28;20055;-76
2022/08/30 11:03:59;;;;;;;27.23;15.98;;;;;;;28.58;40.02;99191.16;5054872;28;20052;-79
2022/08/30 11:07:05;;;;;;;26.60;15.70;;;;;;;28.65;39.81;99186.16;5054863;28;20052;-78
2022/08/30 11:09:38;;;;;;;28.05;14.98;;;;;;;28.72;38.16;99184.69;5054720;28;20053;-77
2022/08/30 11:12:31;;;;;;;25.92;14.40;;;;;;;28.74;38.68;99180.03;5054557;28;20081;-79
2022/08/30 11:15:11;;;;;;;28.65;15.30;;;;;;;28.77;38.55;99187.81;5054478;28;20045;-77
2022/08/30 11:17:55;;;;;;;26.17;15.95;;;;;;;28.78;38.46;99185.97;5057654;28;20068;-76
2022/08/30 11:20:28;;;;;;;27.13;14.57;;;;;;;28.71;38.00;99179.41;5065727;28;20103;-78
2022/08/30 11:23:13;;;;;;;23.00;13.80;;;;;;;28.54;38.53;99180.81;5057162;28;20060;-78
2022/08/30 11:26:05;;;;;;;27.83;14.63;;;;;;;28.61;38.92;99178.47;5054599;28;20053;-78
2022/08/30 11:28:34;;;;;;;20.55;13.93;;;;;;;28.65;38.65;99175.41;5054476;28;20563;-78
2022/08/30 11:31:10;;;;;;;25.50;13.70;;;;;;;28.61;39.04;99178.47;5053658;28;20048;-78
2022/08/30 11:33:43;;;;;;;23.08;13.68;;;;;;;28.73;38.82;99172.09;5053970;28;20349;-80
2022/08/30 11:36:37;;;;;;;23.33;13.82;;;;;;;28.83;38.81;99172.19;5054786;28;20068;-79
2022/08/30 11:39:42;;;;;;;25.50;14.80;;;;;;;28.88;38.62;99172.66;5048054;28;20053;-79
2022/08/30 11:42:53;;;;;;;22.45;13.60;;;;;;;28.88;38.82;99176.19;5053659;28;20067;-78
2022/08/30 11:45:21;;;;;;;26.65;14.27;;;;;;;28.92;38.79;99174.09;5036356;28;20539;-79
2022/08/30 11:48:36;;;;;;;23.02;13.18;;;;;;;28.98;38.60;99168.22;5053405;28;20064;-78